To NAV CANADA Home Page Login to a new session Search on AWWS site Disclaimer Vers la page française équivalente Tips FAQ What's new on the site To the Forecasts and Observations / NOTAM section To "File a Flight Plan" website Publications and other links Update of the User's profile FIC Telephone Numbers My Weather Data Folder Route Weather Data Regional Weather Data Local Weather Data To the Forecasts and Observations / NOTAM section
Request Generated 03/21/2019 at 01:30:16 UTC . Weather information available at that time is displayed.

METAR/TAF

PRINCE RUPERT/BC    (show WxCam)

METAR CYPR 210100Z AUTO 29003KT 280V350 9SM CLR 14/02 A2989 RMK SLP123=
METAR CYPR 210000Z AUTO VRB02KT 9SM CLR 14/02 A2990 RMK SLP127=
METAR CYPR 202300Z AUTO 28004KT 210V320 9SM CLR 13/04 A2991 RMK SLP130=

TAF CYPR 210038Z 2101/2113 VRB03KT P6SM BKN120 BKN200
BECMG 2104/2106 08006KT BKN140
FM211000 09006KT P6SM BKN250
RMK FCST BASED ON AUTO OBS. NXT FCST BY 210700Z=
Your time UTC time
Weather data provided by Environment Canada and NAV CANADA